Date,TemperatureHighF,TemperatureAvgF,TemperatureLowF,DewpointHighF,DewpointAvgF,DewpointLowF,HumidityHigh,HumidityAvg,HumidityLow,PressureMaxIn,PressureMinIn,WindSpeedMaxMPH,WindSpeedAvgMPH,GustSpeedMaxMPH,PrecipitationSumIn
2013-9-11,83.5,75.0,69.8,72.5,69.9,67.7,94,85,65,29.85,29.74,6,2,9,0.23
2013-9-12,88.9,81.6,72.7,71.9,69.4,63.6,88,68,44,29.80,29.65,7,3,11,0.00
2013-9-13,87.3,78.3,71.1,73.6,71.0,68.6,96,80,62,29.72,29.59,7,2,11,1.24
2013-9-14,87.8,80.3,70.9,74.0,71.3,67.7,92,75,60,29.76,29.59,9,3,13,0.21
2013-9-15,87.8,84.5,74.5,73.8,71.2,66.6,93,65,53,29.76,29.59,8,4,14,0.09
2013-9-16,87.6,79.5,71.2,74.4,70.9,67.8,93,76,60,29.78,29.59,7,3,12,0.26
2013-9-17,85.3,76.6,72.3,73.1,70.5,67.5,93,82,61,29.79,29.63,6,1,9,0.20
2013-9-18,86.2,78.1,71.2,74.0,71.5,68.8,94,81,62,29.85,29.66,5,2,13,0.80
2013-9-19,82.2,73.4,69.4,71.7,69.2,66.3,92,87,70,29.86,29.71,7,2,14,0.01
2013-9-20,88.0,83.7,76.8,74.7,72.9,71.7,85,70,63,29.79,29.70,4,2,8,0.00
2013-9-21,85.3,80.2,74.8,74.5,72.6,70.3,93,78,68,29.77,29.63,5,3,11,0.02
2013-9-22,76.1,72.1,70.3,71.3,70.0,68.3,98,93,79,29.84,29.62,10,2,16,0.28
2013-9-23,87.4,82.5,71.1,74.0,71.3,67.9,93,70,54,29.80,29.65,6,2,10,0.01
2013-9-24,92.7,82.3,74.1,75.8,72.2,66.4,93,74,44,29.74,29.59,8,3,12,0.22
2013-9-25,82.9,78.2,72.0,72.6,66.9,61.3,93,69,54,29.76,29.57,14,3,17,0.00
2013-9-26,88.3,81.1,68.9,73.9,70.0,66.4,92,70,50,29.81,29.63,9,3,14,1.15
2013-9-27,88.3,80.5,72.3,72.6,68.3,63.5,83,67,50,29.79,29.64,8,3,14,0.00
2013-9-28,82.8,77.9,73.4,73.2,70.8,66.8,92,79,69,29.81,29.72,5,2,9,0.01
2013-9-29,88.0,80.6,70.5,73.4,70.4,66.3,93,72,55,29.80,29.64,9,2,14,0.74
2013-9-30,87.8,80.9,71.2,72.8,69.9,65.7,93,71,52,29.82,29.66,6,2,10,1.38